sensor_id;sensor_type;location;lat;lon;timestamp;P1;durP1;ratioP1;P2;durP2;ratioP2
60853;SDS011;48554;50.766;2.900;2022-09-01T00:00:52;2.90;;;1.10;;
60853;SDS011;48554;50.766;2.900;2022-09-01T00:03:12;3.70;;;1.00;;
60853;SDS011;48554;50.766;2.900;2022-09-01T00:05:33;4.97;;;1.00;;
60853;SDS011;48554;50.766;2.900;2022-09-01T00:07:53;2.73;;;1.20;;
60853;SDS011;48554;50.766;2.900;2022-09-01T00:10:14;3.00;;;0.90;;
60853;SDS011;48554;50.766;2.900;2022-09-01T00:12:35;2.40;;;0.77;;
60853;SDS011;48554;50.766;2.900;2022-09-01T00:14:56;3.22;;;1.10;;
60853;SDS011;48554;50.766;2.900;2022-09-01T00:17:17;2.97;;;1.07;;
60853;SDS011;48554;50.766;2.900;2022-09-01T00:19:38;3.23;;;0.93;;
60853;SDS011;48554;50.766;2.900;2022-09-01T00:21:58;2.40;;;0.87;;
60853;SDS011;48554;50.766;2.900;2022-09-01T00:24:20;1.42;;;0.98;;
60853;SDS011;48554;50.766;2.900;2022-09-01T00:26:41;3.17;;;1.00;;
60853;SDS011;48554;50.766;2.900;2022-09-01T00:29:02;2.93;;;1.03;;
60853;SDS011;48554;50.766;2.900;2022-09-01T00:33:45;3.50;;;1.00;;
60853;SDS011;48554;50.766;2.900;2022-09-01T00:36:06;1.77;;;0.90;;
60853;SDS011;48554;50.766;2.900;2022-09-01T00:38:27;1.07;;;0.90;;
60853;SDS011;48554;50.766;2.900;2022-09-01T00:40:47;2.27;;;1.00;;
60853;SDS011;48554;50.766;2.900;2022-09-01T00:43:11;2.33;;;1.00;;
60853;SDS011;48554;50.766;2.900;2022-09-01T00:45:33;3.28;;;1.10;;
60853;SDS011;48554;50.766;2.900;2022-09-01T00:47:53;1.70;;;1.00;;
60853;SDS011;48554;50.766;2.900;2022-09-01T00:50:14;1.93;;;0.90;;
60853;SDS011;48554;50.766;2.900;2022-09-01T00:52:41;2.15;;;0.88;;
60853;SDS011;48554;50.766;2.900;2022-09-01T00:55:15;6.05;;;1.13;;
60853;SDS011;48554;50.766;2.900;2022-09-01T00:57:40;4.93;;;1.10;;
60853;SDS011;48554;50.766;2.900;2022-09-01T01:00:05;2.53;;;1.00;;
60853;SDS011;48554;50.766;2.900;2022-09-01T01:02:28;3.78;;;1.10;;
60853;SDS011;48554;50.766;2.900;2022-09-01T01:04:49;4.07;;;1.00;;
60853;SDS011;48554;50.766;2.900;2022-09-01T01:07:09;2.13;;;0.70;;
60853;SDS011;48554;50.766;2.900;2022-09-01T01:09:32;2.63;;;0.98;;
60853;SDS011;48554;50.766;2.900;2022-09-01T01:11:55;2.17;;;1.00;;
60853;SDS011;48554;50.766;2.900;2022-09-01T01:14:15;4.17;;;1.00;;
60853;SDS011;48554;50.766;2.900;2022-09-01T01:16:37;3.33;;;1.00;;
60853;SDS011;48554;50.766;2.900;2022-09-01T01:19:00;1.80;;;0.68;;
60853;SDS011;48554;50.766;2.900;2022-09-01T01:21:34;3.97;;;1.37;;
60853;SDS011;48554;50.766;2.900;2022-09-01T01:24:20;2.65;;;0.93;;
60853;SDS011;48554;50.766;2.900;2022-09-01T01:26:48;4.22;;;1.05;;
60853;SDS011;48554;50.766;2.900;2022-09-01T01:29:10;2.78;;;0.93;;
60853;SDS011;48554;50.766;2.900;2022-09-01T01:31:30;3.00;;;1.10;;
60853;SDS011;48554;50.766;2.900;2022-09-01T01:33:52;3.87;;;1.07;;
60853;SDS011;48554;50.766;2.900;2022-09-01T01:36:16;2.40;;;0.85;;
60853;SDS011;48554;50.766;2.900;2022-09-01T01:38:39;1.75;;;0.82;;
60853;SDS011;48554;50.766;2.900;2022-09-01T01:41:02;1.70;;;0.70;;
60853;SDS011;48554;50.766;2.900;2022-09-01T01:43:23;2.43;;;0.80;;
60853;SDS011;48554;50.766;2.900;2022-09-01T01:45:43;2.13;;;0.95;;
60853;SDS011;48554;50.766;2.900;2022-09-01T01:48:04;3.10;;;0.83;;
60853;SDS011;48554;50.766;2.900;2022-09-01T01:50:26;2.27;;;0.90;;
60853;SDS011;48554;50.766;2.900;2022-09-01T01:52:48;2.60;;;0.80;;
60853;SDS011;48554;50.766;2.900;2022-09-01T01:55:09;2.13;;;0.90;;
60853;SDS011;48554;50.766;2.900;2022-09-01T01:57:29;3.50;;;0.93;;
60853;SDS011;48554;50.766;2.900;2022-09-01T01:59:49;1.73;;;0.97;;
60853;SDS011;48554;50.766;2.900;2022-09-01T02:02:10;2.10;;;0.87;;
60853;SDS011;48554;50.766;2.900;2022-09-01T02:04:30;2.77;;;0.83;;
60853;SDS011;48554;50.766;2.900;2022-09-01T02:06:50;3.20;;;1.07;;
60853;SDS011;48554;50.766;2.900;2022-09-01T02:09:11;3.00;;;1.30;;
60853;SDS011;48554;50.766;2.900;2022-09-01T02:11:32;2.53;;;0.85;;
60853;SDS011;48554;50.766;2.900;2022-09-01T02:13:54;2.25;;;0.88;;
60853;SDS011;48554;50.766;2.900;2022-09-01T02:18:37;2.95;;;1.10;;
60853;SDS011;48554;50.766;2.900;2022-09-01T02:20:59;2.58;;;0.95;;
60853;SDS011;48554;50.766;2.900;2022-09-01T02:23:20;3.60;;;1.13;;
60853;SDS011;48554;50.766;2.900;2022-09-01T02:25:42;1.88;;;0.82;;
60853;SDS011;48554;50.766;2.900;2022-09-01T02:28:04;3.20;;;1.23;;
60853;SDS011;48554;50.766;2.900;2022-09-01T02:30:24;3.90;;;1.60;;
60853;SDS011;48554;50.766;2.900;2022-09-01T02:32:44;3.37;;;1.37;;
60853;SDS011;48554;50.766;2.900;2022-09-01T02:35:05;1.97;;;1.00;;
60853;SDS011;48554;50.766;2.900;2022-09-01T02:37:25;1.53;;;1.00;;
60853;SDS011;48554;50.766;2.900;2022-09-01T02:39:46;3.20;;;1.10;;
60853;SDS011;48554;50.766;2.900;2022-09-01T02:42:06;4.87;;;1.03;;
60853;SDS011;48554;50.766;2.900;2022-09-01T02:44:27;2.00;;;0.80;;
60853;SDS011;48554;50.766;2.900;2022-09-01T02:46:48;3.30;;;0.95;;
60853;SDS011;48554;50.766;2.900;2022-09-01T02:49:10;2.90;;;0.90;;
60853;SDS011;48554;50.766;2.900;2022-09-01T02:51:31;1.90;;;1.00;;
60853;SDS011;48554;50.766;2.900;2022-09-01T02:53:52;4.80;;;1.37;;
60853;SDS011;48554;50.766;2.900;2022-09-01T02:56:12;5.17;;;1.30;;
60853;SDS011;48554;50.766;2.900;2022-09-01T02:58:33;2.80;;;1.17;;
60853;SDS011;48554;50.766;2.900;2022-09-01T03:00:54;2.07;;;1.00;;
60853;SDS011;48554;50.766;2.900;2022-09-01T03:03:15;1.52;;;0.80;;
60853;SDS011;48554;50.766;2.900;2022-09-01T03:05:36;4.03;;;1.33;;
60853;SDS011;48554;50.766;2.900;2022-09-01T03:07:57;2.43;;;0.90;;
60853;SDS011;48554;50.766;2.900;2022-09-01T03:10:20;1.38;;;0.77;;
60853;SDS011;48554;50.766;2.900;2022-09-01T03:12:40;3.10;;;1.30;;
60853;SDS011;48554;50.766;2.900;2022-09-01T03:15:00;3.90;;;1.80;;
60853;SDS011;48554;50.766;2.900;2022-09-01T03:17:20;2.67;;;1.00;;
60853;SDS011;48554;50.766;2.900;2022-09-01T03:19:41;1.70;;;0.90;;
60853;SDS011;48554;50.766;2.900;2022-09-01T03:22:01;5.70;;;1.23;;
60853;SDS011;48554;50.766;2.900;2022-09-01T03:24:21;1.47;;;0.80;;
60853;SDS011;48554;50.766;2.900;2022-09-01T03:26:42;1.70;;;0.77;;
60853;SDS011;48554;50.766;2.900;2022-09-01T03:29:03;5.28;;;1.20;;
60853;SDS011;48554;50.766;2.900;2022-09-01T03:31:24;3.43;;;0.87;;
60853;SDS011;48554;50.766;2.900;2022-09-01T03:33:44;3.93;;;1.03;;
60853;SDS011;48554;50.766;2.900;2022-09-01T03:36:05;1.30;;;0.90;;
60853;SDS011;48554;50.766;2.900;2022-09-01T03:38:26;2.92;;;0.93;;
60853;SDS011;48554;50.766;2.900;2022-09-01T03:40:49;2.93;;;1.00;;
60853;SDS011;48554;50.766;2.900;2022-09-01T03:43:12;3.33;;;0.95;;
60853;SDS011;48554;50.766;2.900;2022-09-01T03:45:32;2.53;;;1.07;;
60853;SDS011;48554;50.766;2.900;2022-09-01T03:47:52;1.43;;;0.90;;
60853;SDS011;48554;50.766;2.900;2022-09-01T03:50:14;6.17;;;1.13;;
60853;SDS011;48554;50.766;2.900;2022-09-01T03:52:36;2.83;;;1.00;;
60853;SDS011;48554;50.766;2.900;2022-09-01T03:54:57;2.07;;;1.00;;
60853;SDS011;48554;50.766;2.900;2022-09-01T03:57:17;6.47;;;1.17;;
60853;SDS011;48554;50.766;2.900;2022-09-01T03:59:38;3.37;;;1.10;;
60853;SDS011;48554;50.766;2.900;2022-09-01T04:01:58;3.17;;;1.10;;
60853;SDS011;48554;50.766;2.900;2022-09-01T04:04:18;2.20;;;0.83;;
60853;SDS011;48554;50.766;2.900;2022-09-01T04:06:39;1.23;;;0.90;;
60853;SDS011;48554;50.766;2.900;2022-09-01T04:09:01;2.72;;;1.05;;
60853;SDS011;48554;50.766;2.900;2022-09-01T04:11:21;2.73;;;0.90;;
60853;SDS011;48554;50.766;2.900;2022-09-01T04:13:41;2.27;;;0.87;;
60853;SDS011;48554;50.766;2.900;2022-09-01T04:16:02;2.83;;;1.23;;
60853;SDS011;48554;50.766;2.900;2022-09-01T04:18:23;3.80;;;0.95;;
60853;SDS011;48554;50.766;2.900;2022-09-01T04:20:43;2.63;;;1.10;;
60853;SDS011;48554;50.766;2.900;2022-09-01T04:23:05;2.58;;;1.30;;
60853;SDS011;48554;50.766;2.900;2022-09-01T04:25:26;3.75;;;1.23;;
60853;SDS011;48554;50.766;2.900;2022-09-01T04:27:46;2.27;;;0.80;;
60853;SDS011;48554;50.766;2.900;2022-09-01T04:30:08;2.97;;;1.20;;
60853;SDS011;48554;50.766;2.900;2022-09-01T04:32:29;2.08;;;0.85;;
60853;SDS011;48554;50.766;2.900;2022-09-01T04:34:49;5.40;;;1.50;;
60853;SDS011;48554;50.766;2.900;2022-09-01T04:37:14;1.60;;;0.90;;
60853;SDS011;48554;50.766;2.900;2022-09-01T04:39:37;2.50;;;1.17;;
60853;SDS011;48554;50.766;2.900;2022-09-01T04:41:58;3.20;;;1.20;;
60853;SDS011;48554;50.766;2.900;2022-09-01T04:44:18;1.90;;;1.07;;
60853;SDS011;48554;50.766;2.900;2022-09-01T04:46:40;4.97;;;1.27;;
60853;SDS011;48554;50.766;2.900;2022-09-01T04:49:02;3.53;;;1.20;;
60853;SDS011;48554;50.766;2.900;2022-09-01T04:51:24;3.95;;;1.88;;
60853;SDS011;48554;50.766;2.900;2022-09-01T04:53:45;3.37;;;1.20;;
60853;SDS011;48554;50.766;2.900;2022-09-01T04:56:06;3.13;;;1.13;;
60853;SDS011;48554;50.766;2.900;2022-09-01T04:58:27;3.97;;;1.00;;
60853;SDS011;48554;50.766;2.900;2022-09-01T05:00:47;2.83;;;1.30;;
60853;SDS011;48554;50.766;2.900;2022-09-01T05:05:40;2.25;;;0.90;;
60853;SDS011;48554;50.766;2.900;2022-09-01T05:08:02;2.75;;;1.05;;
60853;SDS011;48554;50.766;2.900;2022-09-01T05:10:22;3.73;;;1.43;;
60853;SDS011;48554;50.766;2.900;2022-09-01T05:12:43;2.80;;;0.97;;
60853;SDS011;48554;50.766;2.900;2022-09-01T05:15:03;3.87;;;1.30;;
60853;SDS011;48554;50.766;2.900;2022-09-01T05:17:24;3.03;;;1.10;;
60853;SDS011;48554;50.766;2.900;2022-09-01T05:19:45;8.87;;;1.17;;
60853;SDS011;48554;50.766;2.900;2022-09-01T05:22:07;8.98;;;1.27;;
60853;SDS011;48554;50.766;2.900;2022-09-01T05:24:28;5.95;;;1.08;;
60853;SDS011;48554;50.766;2.900;2022-09-01T05:26:49;9.10;;;2.07;;
60853;SDS011;48554;50.766;2.900;2022-09-01T05:29:09;6.87;;;1.20;;
60853;SDS011;48554;50.766;2.900;2022-09-01T05:31:30;3.70;;;1.43;;
60853;SDS011;48554;50.766;2.900;2022-09-01T05:33:52;4.38;;;1.30;;
60853;SDS011;48554;50.766;2.900;2022-09-01T05:36:18;5.82;;;1.33;;
60853;SDS011;48554;50.766;2.900;2022-09-01T05:38:40;3.58;;;1.38;;
60853;SDS011;48554;50.766;2.900;2022-09-01T05:41:02;3.27;;;1.40;;
60853;SDS011;48554;50.766;2.900;2022-09-01T05:43:24;4.60;;;1.48;;
60853;SDS011;48554;50.766;2.900;2022-09-01T05:45:44;4.80;;;1.63;;
60853;SDS011;48554;50.766;2.900;2022-09-01T05:48:04;8.00;;;2.07;;
60853;SDS011;48554;50.766;2.900;2022-09-01T05:50:24;14.37;;;2.43;;
60853;SDS011;48554;50.766;2.900;2022-09-01T05:52:45;10.97;;;2.50;;
60853;SDS011;48554;50.766;2.900;2022-09-01T05:55:05;7.53;;;2.23;;
60853;SDS011;48554;50.766;2.900;2022-09-01T05:57:26;10.97;;;2.73;;
60853;SDS011;48554;50.766;2.900;2022-09-01T05:59:46;11.40;;;2.77;;
60853;SDS011;48554;50.766;2.900;2022-09-01T06:02:06;7.60;;;1.97;;
60853;SDS011;48554;50.766;2.900;2022-09-01T06:04:26;9.10;;;2.37;;
60853;SDS011;48554;50.766;2.900;2022-09-01T06:06:47;6.60;;;1.93;;
60853;SDS011;48554;50.766;2.900;2022-09-01T06:09:07;8.87;;;2.00;;
60853;SDS011;48554;50.766;2.900;2022-09-01T06:11:28;8.75;;;1.95;;
60853;SDS011;48554;50.766;2.900;2022-09-01T06:13:49;10.47;;;3.10;;
60853;SDS011;48554;50.766;2.900;2022-09-01T06:16:09;8.30;;;2.20;;
60853;SDS011;48554;50.766;2.900;2022-09-01T06:18:30;4.03;;;1.53;;
60853;SDS011;48554;50.766;2.900;2022-09-01T06:20:50;4.97;;;1.50;;
60853;SDS011;48554;50.766;2.900;2022-09-01T06:23:10;10.60;;;1.80;;
60853;SDS011;48554;50.766;2.900;2022-09-01T06:25:31;8.67;;;3.40;;
60853;SDS011;48554;50.766;2.900;2022-09-01T06:27:51;7.87;;;2.00;;
60853;SDS011;48554;50.766;2.900;2022-09-01T06:30:12;6.67;;;1.57;;
60853;SDS011;48554;50.766;2.900;2022-09-01T06:32:34;6.82;;;1.73;;
60853;SDS011;48554;50.766;2.900;2022-09-01T06:34:54;6.80;;;1.70;;
60853;SDS011;48554;50.766;2.900;2022-09-01T06:37:14;8.23;;;1.60;;
60853;SDS011;48554;50.766;2.900;2022-09-01T06:39:35;4.87;;;1.60;;
60853;SDS011;48554;50.766;2.900;2022-09-01T06:41:55;6.10;;;1.63;;
60853;SDS011;48554;50.766;2.900;2022-09-01T06:44:16;9.57;;;1.67;;
60853;SDS011;48554;50.766;2.900;2022-09-01T06:46:36;4.57;;;1.60;;
60853;SDS011;48554;50.766;2.900;2022-09-01T06:48:56;7.03;;;1.50;;
60853;SDS011;48554;50.766;2.900;2022-09-01T06:51:18;4.47;;;1.23;;
60853;SDS011;48554;50.766;2.900;2022-09-01T06:53:41;4.97;;;1.50;;
60853;SDS011;48554;50.766;2.900;2022-09-01T06:56:02;5.32;;;1.48;;
60853;SDS011;48554;50.766;2.900;2022-09-01T06:58:23;4.63;;;1.60;;
60853;SDS011;48554;50.766;2.900;2022-09-01T07:00:43;5.00;;;1.37;;
60853;SDS011;48554;50.766;2.900;2022-09-01T07:03:04;4.97;;;2.30;;
60853;SDS011;48554;50.766;2.900;2022-09-01T07:05:24;7.20;;;1.80;;
60853;SDS011;48554;50.766;2.900;2022-09-01T07:07:48;6.10;;;1.70;;
60853;SDS011;48554;50.766;2.900;2022-09-01T07:10:13;6.50;;;1.77;;
60853;SDS011;48554;50.766;2.900;2022-09-01T07:12:33;4.30;;;1.93;;
60853;SDS011;48554;50.766;2.900;2022-09-01T07:14:54;6.20;;;1.57;;
60853;SDS011;48554;50.766;2.900;2022-09-01T07:17:14;6.13;;;1.80;;
60853;SDS011;48554;50.766;2.900;2022-09-01T07:19:35;4.97;;;1.70;;
60853;SDS011;48554;50.766;2.900;2022-09-01T07:21:55;6.00;;;1.83;;
60853;SDS011;48554;50.766;2.900;2022-09-01T07:24:15;3.37;;;1.60;;
60853;SDS011;48554;50.766;2.900;2022-09-01T07:26:36;5.37;;;1.73;;
60853;SDS011;48554;50.766;2.900;2022-09-01T07:28:57;4.40;;;1.75;;
60853;SDS011;48554;50.766;2.900;2022-09-01T07:31:21;5.50;;;1.93;;
60853;SDS011;48554;50.766;2.900;2022-09-01T07:33:43;5.20;;;1.73;;
60853;SDS011;48554;50.766;2.900;2022-09-01T07:36:04;4.00;;;1.47;;
60853;SDS011;48554;50.766;2.900;2022-09-01T07:38:24;4.93;;;2.00;;
60853;SDS011;48554;50.766;2.900;2022-09-01T07:40:46;4.18;;;1.83;;
60853;SDS011;48554;50.766;2.900;2022-09-01T07:43:07;3.30;;;1.67;;
60853;SDS011;48554;50.766;2.900;2022-09-01T07:45:34;5.50;;;1.63;;
60853;SDS011;48554;50.766;2.900;2022-09-01T07:47:56;5.05;;;1.80;;
60853;SDS011;48554;50.766;2.900;2022-09-01T07:50:17;6.45;;;1.85;;
60853;SDS011;48554;50.766;2.900;2022-09-01T07:52:38;5.60;;;1.67;;
60853;SDS011;48554;50.766;2.900;2022-09-01T07:54:58;7.22;;;2.00;;
60853;SDS011;48554;50.766;2.900;2022-09-01T07:57:19;4.63;;;2.03;;
60853;SDS011;48554;50.766;2.900;2022-09-01T07:59:39;7.57;;;1.50;;
60853;SDS011;48554;50.766;2.900;2022-09-01T08:01:59;5.17;;;1.70;;
60853;SDS011;48554;50.766;2.900;2022-09-01T08:04:20;5.40;;;2.00;;
60853;SDS011;48554;50.766;2.900;2022-09-01T08:06:40;3.67;;;1.60;;
60853;SDS011;48554;50.766;2.900;2022-09-01T08:09:00;4.63;;;1.40;;
60853;SDS011;48554;50.766;2.900;2022-09-01T08:11:22;3.97;;;1.60;;
60853;SDS011;48554;50.766;2.900;2022-09-01T08:13:45;4.63;;;1.65;;
60853;SDS011;48554;50.766;2.900;2022-09-01T08:16:05;6.10;;;2.20;;
60853;SDS011;48554;50.766;2.900;2022-09-01T08:18:26;5.23;;;2.07;;
60853;SDS011;48554;50.766;2.900;2022-09-01T08:20:46;3.57;;;1.70;;
60853;SDS011;48554;50.766;2.900;2022-09-01T08:23:06;4.87;;;1.50;;
60853;SDS011;48554;50.766;2.900;2022-09-01T08:25:27;4.17;;;1.70;;
60853;SDS011;48554;50.766;2.900;2022-09-01T08:27:47;7.47;;;1.50;;
60853;SDS011;48554;50.766;2.900;2022-09-01T08:30:09;4.90;;;1.30;;
60853;SDS011;48554;50.766;2.900;2022-09-01T08:32:30;5.10;;;1.73;;
60853;SDS011;48554;50.766;2.900;2022-09-01T08:34:50;2.73;;;1.23;;
60853;SDS011;48554;50.766;2.900;2022-09-01T08:37:10;3.10;;;1.40;;
60853;SDS011;48554;50.766;2.900;2022-09-01T08:39:31;5.40;;;1.53;;
60853;SDS011;48554;50.766;2.900;2022-09-01T08:46:57;2.92;;;1.45;;
60853;SDS011;48554;50.766;2.900;2022-09-01T08:49:21;2.50;;;1.35;;
60853;SDS011;48554;50.766;2.900;2022-09-01T08:51:56;3.60;;;1.23;;
60853;SDS011;48554;50.766;2.900;2022-09-01T08:57:20;6.30;;;1.80;;
60853;SDS011;48554;50.766;2.900;2022-09-01T08:59:48;2.63;;;1.52;;
60853;SDS011;48554;50.766;2.900;2022-09-01T09:10:20;4.72;;;2.00;;
60853;SDS011;48554;50.766;2.900;2022-09-01T09:17:28;3.97;;;1.33;;
60853;SDS011;48554;50.766;2.900;2022-09-01T09:19:52;4.75;;;1.50;;
60853;SDS011;48554;50.766;2.900;2022-09-01T09:22:14;4.03;;;1.07;;
60853;SDS011;48554;50.766;2.900;2022-09-01T09:27:05;4.80;;;1.60;;
60853;SDS011;48554;50.766;2.900;2022-09-01T09:29:25;5.37;;;1.80;;
60853;SDS011;48554;50.766;2.900;2022-09-01T09:31:46;3.53;;;1.20;;
60853;SDS011;48554;50.766;2.900;2022-09-01T09:36:46;3.22;;;1.25;;
60853;SDS011;48554;50.766;2.900;2022-09-01T09:39:08;2.93;;;1.17;;
60853;SDS011;48554;50.766;2.900;2022-09-01T09:41:33;3.40;;;1.42;;
60853;SDS011;48554;50.766;2.900;2022-09-01T09:43:55;3.07;;;1.50;;
60853;SDS011;48554;50.766;2.900;2022-09-01T09:46:19;3.28;;;1.38;;
60853;SDS011;48554;50.766;2.900;2022-09-01T09:48:42;3.60;;;1.30;;
60853;SDS011;48554;50.766;2.900;2022-09-01T09:51:13;3.87;;;1.73;;
60853;SDS011;48554;50.766;2.900;2022-09-01T09:53:36;3.65;;;1.60;;
60853;SDS011;48554;50.766;2.900;2022-09-01T09:56:01;3.03;;;1.83;;
60853;SDS011;48554;50.766;2.900;2022-09-01T10:03:42;3.65;;;1.70;;
60853;SDS011;48554;50.766;2.900;2022-09-01T10:06:04;3.67;;;1.20;;
60853;SDS011;48554;50.766;2.900;2022-09-01T10:08:40;4.85;;;1.52;;
60853;SDS011;48554;50.766;2.900;2022-09-01T10:11:03;3.45;;;1.73;;
60853;SDS011;48554;50.766;2.900;2022-09-01T10:13:24;3.28;;;1.90;;
60853;SDS011;48554;50.766;2.900;2022-09-01T10:15:47;6.53;;;1.60;;
60853;SDS011;48554;50.766;2.900;2022-09-01T10:18:14;2.83;;;1.60;;
60853;SDS011;48554;50.766;2.900;2022-09-01T10:20:37;5.65;;;1.63;;
60853;SDS011;48554;50.766;2.900;2022-09-01T10:23:00;4.30;;;1.92;;
60853;SDS011;48554;50.766;2.900;2022-09-01T10:25:22;5.03;;;1.63;;
60853;SDS011;48554;50.766;2.900;2022-09-01T10:28:08;4.70;;;1.60;;
60853;SDS011;48554;50.766;2.900;2022-09-01T10:30:33;3.03;;;1.50;;
60853;SDS011;48554;50.766;2.900;2022-09-01T10:32:59;4.13;;;2.03;;
60853;SDS011;48554;50.766;2.900;2022-09-01T10:35:21;2.33;;;1.48;;
60853;SDS011;48554;50.766;2.900;2022-09-01T10:37:42;4.45;;;1.45;;
60853;SDS011;48554;50.766;2.900;2022-09-01T10:40:37;3.60;;;1.73;;
60853;SDS011;48554;50.766;2.900;2022-09-01T10:42:49;2.85;;;1.30;;
60853;SDS011;48554;50.766;2.900;2022-09-01T10:45:43;3.57;;;1.40;;
60853;SDS011;48554;50.766;2.900;2022-09-01T10:50:39;3.78;;;1.73;;
60853;SDS011;48554;50.766;2.900;2022-09-01T10:53:03;4.73;;;1.70;;
60853;SDS011;48554;50.766;2.900;2022-09-01T10:55:29;3.63;;;1.70;;
60853;SDS011;48554;50.766;2.900;2022-09-01T10:58:01;4.80;;;1.90;;
60853;SDS011;48554;50.766;2.900;2022-09-01T11:00:43;3.47;;;1.52;;
60853;SDS011;48554;50.766;2.900;2022-09-01T11:08:22;4.45;;;1.48;;
60853;SDS011;48554;50.766;2.900;2022-09-01T11:11:05;4.93;;;1.67;;
60853;SDS011;48554;50.766;2.900;2022-09-01T11:18:45;2.67;;;1.48;;
60853;SDS011;48554;50.766;2.900;2022-09-01T11:21:18;4.53;;;1.88;;
60853;SDS011;48554;50.766;2.900;2022-09-01T11:23:44;4.38;;;1.85;;
60853;SDS011;48554;50.766;2.900;2022-09-01T11:28:52;5.75;;;1.85;;
60853;SDS011;48554;50.766;2.900;2022-09-01T11:31:14;2.93;;;1.43;;
60853;SDS011;48554;50.766;2.900;2022-09-01T11:36:04;4.45;;;2.00;;
60853;SDS011;48554;50.766;2.900;2022-09-01T11:38:33;3.97;;;2.13;;
60853;SDS011;48554;50.766;2.900;2022-09-01T11:41:04;3.60;;;1.73;;
60853;SDS011;48554;50.766;2.900;2022-09-01T11:43:25;4.63;;;1.90;;
60853;SDS011;48554;50.766;2.900;2022-09-01T11:46:46;3.67;;;1.97;;
60853;SDS011;48554;50.766;2.900;2022-09-01T11:48:47;4.60;;;1.88;;
60853;SDS011;48554;50.766;2.900;2022-09-01T11:51:08;3.72;;;1.88;;
60853;SDS011;48554;50.766;2.900;2022-09-01T11:53:28;5.13;;;1.90;;
60853;SDS011;48554;50.766;2.900;2022-09-01T11:55:50;3.28;;;1.73;;
60853;SDS011;48554;50.766;2.900;2022-09-01T11:58:13;5.47;;;1.90;;
60853;SDS011;48554;50.766;2.900;2022-09-01T12:00:47;4.28;;;1.80;;
60853;SDS011;48554;50.766;2.900;2022-09-01T12:03:21;3.20;;;1.80;;
60853;SDS011;48554;50.766;2.900;2022-09-01T12:05:51;4.55;;;1.80;;
60853;SDS011;48554;50.766;2.900;2022-09-01T12:08:15;4.18;;;2.20;;
60853;SDS011;48554;50.766;2.900;2022-09-01T12:10:37;4.10;;;2.05;;
60853;SDS011;48554;50.766;2.900;2022-09-01T12:15:23;4.60;;;1.83;;
60853;SDS011;48554;50.766;2.900;2022-09-01T12:17:44;5.30;;;1.98;;
60853;SDS011;48554;50.766;2.900;2022-09-01T12:22:58;5.22;;;2.03;;
60853;SDS011;48554;50.766;2.900;2022-09-01T12:25:29;3.40;;;1.88;;
60853;SDS011;48554;50.766;2.900;2022-09-01T12:27:52;4.57;;;2.83;;
60853;SDS011;48554;50.766;2.900;2022-09-01T12:30:13;4.93;;;2.30;;
60853;SDS011;48554;50.766;2.900;2022-09-01T12:32:33;3.37;;;1.83;;
60853;SDS011;48554;50.766;2.900;2022-09-01T12:35:01;3.80;;;1.97;;
60853;SDS011;48554;50.766;2.900;2022-09-01T12:37:25;5.35;;;1.90;;
60853;SDS011;48554;50.766;2.900;2022-09-01T12:39:50;3.90;;;2.03;;
60853;SDS011;48554;50.766;2.900;2022-09-01T12:42:25;3.28;;;1.75;;
60853;SDS011;48554;50.766;2.900;2022-09-01T12:44:55;4.00;;;2.13;;
60853;SDS011;48554;50.766;2.900;2022-09-01T12:49:52;5.53;;;2.10;;
60853;SDS011;48554;50.766;2.900;2022-09-01T12:54:33;4.73;;;2.17;;
60853;SDS011;48554;50.766;2.900;2022-09-01T12:56:53;3.80;;;2.07;;
60853;SDS011;48554;50.766;2.900;2022-09-01T12:59:18;4.00;;;1.93;;
60853;SDS011;48554;50.766;2.900;2022-09-01T13:01:42;3.42;;;1.92;;
60853;SDS011;48554;50.766;2.900;2022-09-01T13:04:10;3.72;;;2.00;;
60853;SDS011;48554;50.766;2.900;2022-09-01T13:06:32;3.75;;;1.80;;
60853;SDS011;48554;50.766;2.900;2022-09-01T13:08:52;3.60;;;1.80;;
60853;SDS011;48554;50.766;2.900;2022-09-01T13:11:14;5.50;;;1.90;;
60853;SDS011;48554;50.766;2.900;2022-09-01T13:13:37;2.95;;;1.70;;
60853;SDS011;48554;50.766;2.900;2022-09-01T13:15:58;4.80;;;1.97;;
60853;SDS011;48554;50.766;2.900;2022-09-01T13:18:19;3.28;;;1.75;;
60853;SDS011;48554;50.766;2.900;2022-09-01T13:20:41;3.75;;;2.10;;
60853;SDS011;48554;50.766;2.900;2022-09-01T13:23:02;4.60;;;2.07;;
60853;SDS011;48554;50.766;2.900;2022-09-01T13:25:22;4.63;;;1.87;;
60853;SDS011;48554;50.766;2.900;2022-09-01T13:27:43;3.10;;;2.00;;
60853;SDS011;48554;50.766;2.900;2022-09-01T13:30:05;3.63;;;1.88;;
60853;SDS011;48554;50.766;2.900;2022-09-01T13:32:25;3.77;;;1.83;;
60853;SDS011;48554;50.766;2.900;2022-09-01T13:34:46;3.00;;;1.97;;
60853;SDS011;48554;50.766;2.900;2022-09-01T13:37:07;3.55;;;1.92;;
60853;SDS011;48554;50.766;2.900;2022-09-01T13:39:27;3.63;;;2.03;;
60853;SDS011;48554;50.766;2.900;2022-09-01T13:41:47;3.07;;;1.90;;
60853;SDS011;48554;50.766;2.900;2022-09-01T13:44:08;4.77;;;2.00;;
60853;SDS011;48554;50.766;2.900;2022-09-01T13:46:28;3.00;;;1.70;;
60853;SDS011;48554;50.766;2.900;2022-09-01T13:48:48;3.70;;;2.03;;
60853;SDS011;48554;50.766;2.900;2022-09-01T13:51:08;4.63;;;2.43;;
60853;SDS011;48554;50.766;2.900;2022-09-01T13:53:29;6.10;;;2.17;;
60853;SDS011;48554;50.766;2.900;2022-09-01T13:55:49;3.47;;;2.20;;
60853;SDS011;48554;50.766;2.900;2022-09-01T13:58:09;4.53;;;1.90;;
60853;SDS011;48554;50.766;2.900;2022-09-01T14:00:33;4.23;;;2.00;;
60853;SDS011;48554;50.766;2.900;2022-09-01T14:02:58;4.38;;;2.28;;
60853;SDS011;48554;50.766;2.900;2022-09-01T14:05:26;4.50;;;1.80;;
60853;SDS011;48554;50.766;2.900;2022-09-01T14:07:51;3.60;;;1.77;;
60853;SDS011;48554;50.766;2.900;2022-09-01T14:10:12;3.25;;;2.00;;
60853;SDS011;48554;50.766;2.900;2022-09-01T14:12:33;4.57;;;1.93;;
60853;SDS011;48554;50.766;2.900;2022-09-01T14:14:53;3.47;;;1.70;;
60853;SDS011;48554;50.766;2.900;2022-09-01T14:17:14;3.63;;;1.97;;
60853;SDS011;48554;50.766;2.900;2022-09-01T14:19:34;4.77;;;2.10;;
60853;SDS011;48554;50.766;2.900;2022-09-01T14:21:54;4.53;;;1.90;;
60853;SDS011;48554;50.766;2.900;2022-09-01T14:24:15;3.60;;;2.03;;
60853;SDS011;48554;50.766;2.900;2022-09-01T14:26:35;4.37;;;1.50;;
60853;SDS011;48554;50.766;2.900;2022-09-01T14:28:55;2.60;;;1.67;;
60853;SDS011;48554;50.766;2.900;2022-09-01T14:31:17;3.60;;;2.27;;
60853;SDS011;48554;50.766;2.900;2022-09-01T14:33:38;4.20;;;1.90;;
60853;SDS011;48554;50.766;2.900;2022-09-01T14:35:59;3.33;;;2.00;;
60853;SDS011;48554;50.766;2.900;2022-09-01T14:38:19;2.60;;;1.70;;
60853;SDS011;48554;50.766;2.900;2022-09-01T14:40:40;3.63;;;2.00;;
60853;SDS011;48554;50.766;2.900;2022-09-01T14:43:01;4.28;;;1.92;;
60853;SDS011;48554;50.766;2.900;2022-09-01T14:45:22;3.17;;;2.03;;
60853;SDS011;48554;50.766;2.900;2022-09-01T14:47:46;4.10;;;2.17;;
60853;SDS011;48554;50.766;2.900;2022-09-01T14:50:07;3.65;;;1.88;;
60853;SDS011;48554;50.766;2.900;2022-09-01T14:52:28;7.70;;;2.00;;
60853;SDS011;48554;50.766;2.900;2022-09-01T14:54:48;3.00;;;1.90;;
60853;SDS011;48554;50.766;2.900;2022-09-01T14:57:08;4.50;;;1.97;;
60853;SDS011;48554;50.766;2.900;2022-09-01T14:59:29;4.83;;;2.07;;
60853;SDS011;48554;50.766;2.900;2022-09-01T15:01:50;7.25;;;1.90;;
60853;SDS011;48554;50.766;2.900;2022-09-01T15:04:10;4.47;;;2.10;;
60853;SDS011;48554;50.766;2.900;2022-09-01T15:06:30;4.93;;;1.77;;
60853;SDS011;48554;50.766;2.900;2022-09-01T15:08:51;6.57;;;2.17;;
60853;SDS011;48554;50.766;2.900;2022-09-01T15:11:12;4.50;;;2.37;;
60853;SDS011;48554;50.766;2.900;2022-09-01T15:13:37;3.70;;;1.77;;
60853;SDS011;48554;50.766;2.900;2022-09-01T15:15:58;3.42;;;1.70;;
60853;SDS011;48554;50.766;2.900;2022-09-01T15:18:18;4.67;;;1.67;;
60853;SDS011;48554;50.766;2.900;2022-09-01T15:20:40;2.37;;;1.60;;
60853;SDS011;48554;50.766;2.900;2022-09-01T15:23:01;3.20;;;2.08;;
60853;SDS011;48554;50.766;2.900;2022-09-01T15:25:21;8.03;;;1.70;;